Lackland, Texas
Current Conditions -  °F | °C
As of 4:58 PM on Thursday 23 Oct 2014 (Local Time) from KSKF Reporting Station
Scattered Clouds Scattered Clouds  
Wind Chill: 83°   Ceiling: Unl
Heat Index: 83°   Visibility: 10mi
Dew Point: 57°   Wind: 3mph
Humidity: 42%   Direction: NA
Pressure: 30.04"   Gusts: NA
Location:  29.3853°N, 98.6099°W
Report Text: KSKF 232158Z AUTO VRB03KT 10SM FEW060 SCT085 28/14 A3004 RMK AO2 SLP166 T02830141 $
Loading
Personal Weather Stations






























Interactive Weather Map
Tropical Storm Tracking
New forecast layout! Learn more

10-Day Weather Forecast

Advertisements
Track Severe Weather on mobile